Time;durP1;ratioP1;P1;durP2;ratioP2;P2;SDS_P1;SDS_P2;PMS_P1;PMS_P2;Temp;Humidity;BMP_temperature;BMP_pressure;BME280_temperature;BME280_humidity;BME280_pressure;Samples;Min_cycle;Max_cycle;Signal;HPM_P1;HPM_P2
2023/12/21 00:01:34;;;;;;;11.50;4.07;;;5.90;1.00;;;;;;5062714;28;20581;-74
2023/12/21 00:04:03;;;;;;;9.43;3.83;;;5.90;1.00;;;;;;5064074;28;20611;-74
2023/12/21 00:06:32;;;;;;;10.10;4.70;;;5.90;1.00;;;;;;5058464;28;20232;-75
2023/12/21 00:09:02;;;;;;;9.27;3.73;;;5.90;1.00;;;;;;5062924;28;20732;-74
2023/12/21 00:11:30;;;;;;;8.07;4.30;;;5.90;1.00;;;;;;5061249;28;20335;-75
2023/12/21 00:14:00;;;;;;;8.53;4.17;;;5.90;1.00;;;;;;5061601;28;20353;-76
2023/12/21 00:16:29;;;;;;;14.43;5.10;;;5.90;1.00;;;;;;5062324;28;21004;-77
2023/12/21 00:18:59;;;;;;;8.73;3.97;;;6.00;1.00;;;;;;5055372;28;20213;-75
2023/12/21 00:21:27;;;;;;;10.60;4.07;;;6.00;1.00;;;;;;5061465;28;20253;-76
2023/12/21 00:23:56;;;;;;;11.23;4.00;;;6.00;1.00;;;;;;5063455;28;20230;-76
2023/12/21 00:26:26;;;;;;;13.10;4.30;;;6.00;1.00;;;;;;5063140;28;20647;-76
2023/12/21 00:28:55;;;;;;;9.03;3.83;;;6.00;1.00;;;;;;5053282;28;20325;-76
2023/12/21 00:31:23;;;;;;;8.60;3.73;;;6.00;1.00;;;;;;5057364;28;20235;-77
2023/12/21 00:33:52;;;;;;;11.20;4.03;;;6.00;1.00;;;;;;5060803;28;20311;-76
2023/12/21 00:36:21;;;;;;;11.67;3.80;;;5.90;1.00;;;;;;5063762;28;20674;-76
2023/12/21 00:38:50;;;;;;;11.73;4.00;;;5.90;1.00;;;;;;5056882;28;20243;-76
2023/12/21 00:41:18;;;;;;;10.83;4.10;;;5.90;1.00;;;;;;5062892;28;20228;-77
2023/12/21 00:43:48;;;;;;;12.33;4.17;;;6.00;1.00;;;;;;5062692;28;20300;-75
2023/12/21 00:46:17;;;;;;;10.33;4.80;;;5.90;1.00;;;;;;5065686;28;20630;-75
2023/12/21 00:48:46;;;;;;;16.67;5.23;;;5.90;1.00;;;;;;5062983;28;20243;-73
2023/12/21 00:51:14;;;;;;;8.70;3.87;;;5.90;1.00;;;;;;5062276;28;20238;-75
2023/12/21 00:53:43;;;;;;;11.83;4.87;;;5.90;1.00;;;;;;5060126;28;20233;-75
2023/12/21 00:56:11;;;;;;;12.63;4.40;;;5.90;1.00;;;;;;5059241;28;20224;-73
2023/12/21 00:58:40;;;;;;;10.83;4.50;;;5.90;1.00;;;;;;5065360;28;20341;-74
2023/12/21 01:01:10;;;;;;;8.90;4.13;;;6.00;1.00;;;;;;5066928;28;20223;-73
2023/12/21 01:03:38;;;;;;;10.20;4.37;;;6.00;1.00;;;;;;5060085;28;20235;-76
2023/12/21 01:06:07;;;;;;;11.80;4.40;;;6.00;1.00;;;;;;5060020;28;20269;-77
2023/12/21 01:08:36;;;;;;;8.67;4.43;;;6.10;1.00;;;;;;5077543;28;20323;-76
2023/12/21 01:11:05;;;;;;;13.60;4.23;;;6.10;1.00;;;;;;5055522;28;20244;-76
2023/12/21 01:13:34;;;;;;;11.23;4.23;;;6.00;1.00;;;;;;5062548;28;20280;-77
2023/12/21 01:16:02;;;;;;;13.67;5.00;;;6.00;1.00;;;;;;5060854;28;20248;-77
2023/12/21 01:18:33;;;;;;;8.50;4.10;;;5.90;1.00;;;;;;5063142;28;20709;-76
2023/12/21 01:21:02;;;;;;;16.00;4.60;;;6.00;1.00;;;;;;5061977;28;20303;-77
2023/12/21 01:23:31;;;;;;;9.50;4.37;;;6.10;1.00;;;;;;5061155;28;20297;-76
2023/12/21 01:25:59;;;;;;;12.67;4.77;;;6.10;1.00;;;;;;5045631;28;20220;-76
2023/12/21 01:28:28;;;;;;;18.60;4.73;;;6.10;1.00;;;;;;5044312;28;20228;-75
2023/12/21 01:30:57;;;;;;;11.40;4.40;;;6.00;1.00;;;;;;5047513;28;20230;-75
2023/12/21 01:33:25;;;;;;;13.13;4.90;;;6.00;1.00;;;;;;5078083;28;20232;-75
2023/12/21 01:35:55;;;;;;;15.27;4.70;;;6.00;1.00;;;;;;5075247;28;20228;-75
2023/12/21 01:38:24;;;;;;;9.30;4.63;;;5.90;1.00;;;;;;5051402;28;20244;-74
2023/12/21 01:40:52;;;;;;;12.10;4.13;;;6.00;1.00;;;;;;5046036;28;20318;-75
2023/12/21 01:43:21;;;;;;;10.70;4.50;;;6.00;1.00;;;;;;5044043;28;20263;-74
2023/12/21 01:45:51;;;;;;;15.53;4.73;;;6.10;1.00;;;;;;5044183;28;20259;-77
2023/12/21 01:48:21;;;;;;;16.27;4.97;;;6.00;1.00;;;;;;5040139;28;20233;-76
2023/12/21 01:50:50;;;;;;;12.13;4.53;;;6.00;1.00;;;;;;5045345;28;20238;-77
2023/12/21 01:53:21;;;;;;;13.10;4.80;;;5.90;1.00;;;;;;5040462;28;20273;-77
2023/12/21 01:55:49;;;;;;;14.87;5.20;;;6.00;1.00;;;;;;5050305;28;20213;-76
2023/12/21 01:58:18;;;;;;;10.77;5.00;;;6.00;1.00;;;;;;5039413;28;20477;-75
2023/12/21 02:00:47;;;;;;;12.60;4.77;;;5.90;1.00;;;;;;5043964;28;20728;-76
2023/12/21 02:03:16;;;;;;;12.80;4.80;;;6.00;1.00;;;;;;5046171;28;20233;-76
2023/12/21 02:05:45;;;;;;;11.40;4.37;;;6.00;1.00;;;;;;5041349;28;20569;-75
2023/12/21 02:08:13;;;;;;;10.97;4.77;;;5.90;1.00;;;;;;5042017;28;20227;-75
2023/12/21 02:10:43;;;;;;;11.03;4.87;;;6.00;1.00;;;;;;5044330;28;20240;-74
2023/12/21 02:13:16;;;;;;;13.93;5.00;;;5.90;1.00;;;;;;5039565;28;20236;-77
2023/12/21 02:15:45;;;;;;;14.03;4.73;;;6.00;1.00;;;;;;5037652;28;20232;-76
2023/12/21 02:18:15;;;;;;;10.27;4.47;;;6.00;1.00;;;;;;5044202;28;20239;-75
2023/12/21 02:20:43;;;;;;;10.57;4.90;;;6.00;1.00;;;;;;5055132;28;20244;-74
2023/12/21 02:23:13;;;;;;;13.97;4.80;;;6.10;1.00;;;;;;5065102;28;20234;-78
2023/12/21 02:25:43;;;;;;;11.23;4.80;;;6.10;1.00;;;;;;5058187;28;20772;-77
2023/12/21 02:28:11;;;;;;;12.43;5.10;;;6.00;1.00;;;;;;5045963;28;20310;-77
2023/12/21 02:30:40;;;;;;;10.97;5.13;;;6.10;1.00;;;;;;5041618;28;20228;-77
2023/12/21 02:33:08;;;;;;;14.47;4.93;;;6.00;1.00;;;;;;5040598;28;20731;-76
2023/12/21 02:35:37;;;;;;;11.73;4.70;;;6.00;1.00;;;;;;5044461;28;20227;-78
2023/12/21 02:38:05;;;;;;;10.57;4.40;;;6.10;1.00;;;;;;5075903;28;20249;-77
2023/12/21 02:40:34;;;;;;;13.63;4.97;;;6.00;1.00;;;;;;5065392;28;20260;-77
2023/12/21 02:43:04;;;;;;;10.50;4.40;;;6.00;1.00;;;;;;5061317;28;20285;-76
2023/12/21 02:45:33;;;;;;;15.30;5.30;;;5.90;1.00;;;;;;5057474;28;20262;-75
2023/12/21 02:48:01;;;;;;;9.33;4.53;;;5.90;1.00;;;;;;5063063;28;20299;-74
2023/12/21 02:50:29;;;;;;;13.20;5.43;;;5.90;1.00;;;;;;5065073;28;20224;-75
2023/12/21 02:52:58;;;;;;;11.97;5.10;;;5.90;1.00;;;;;;5055805;28;20230;-74
2023/12/21 02:55:27;;;;;;;10.63;4.60;;;5.90;1.00;;;;;;5061487;28;20312;-74
2023/12/21 02:57:56;;;;;;;10.53;4.23;;;5.90;1.00;;;;;;5060344;28;20219;-72
2023/12/21 03:00:25;;;;;;;9.97;4.47;;;5.90;1.00;;;;;;5056600;28;20242;-75
2023/12/21 03:02:54;;;;;;;10.07;4.27;;;6.10;1.00;;;;;;5040569;28;20232;-73
2023/12/21 03:05:22;;;;;;;12.60;5.10;;;6.00;1.00;;;;;;5062763;28;20281;-73
2023/12/21 03:07:53;;;;;;;13.07;4.07;;;6.00;1.00;;;;;;5061381;28;20687;-73
2023/12/21 03:10:22;;;;;;;11.37;4.13;;;5.90;1.00;;;;;;5064018;28;20227;-74
2023/12/21 03:12:50;;;;;;;11.93;4.57;;;5.90;1.00;;;;;;5056777;28;20228;-74
2023/12/21 03:15:19;;;;;;;9.47;4.13;;;6.00;1.00;;;;;;5060746;28;20695;-72
2023/12/21 03:17:49;;;;;;;13.70;4.33;;;5.90;1.00;;;;;;5062910;28;20254;-75
2023/12/21 03:20:17;;;;;;;10.73;4.20;;;5.90;1.00;;;;;;5062767;28;20250;-75
2023/12/21 03:22:46;;;;;;;9.57;4.27;;;5.90;1.00;;;;;;5058439;28;20221;-74
2023/12/21 03:25:15;;;;;;;19.23;4.37;;;5.70;1.00;;;;;;5058555;28;20223;-74
2023/12/21 03:27:44;;;;;;;10.33;3.90;;;5.70;1.00;;;;;;5057392;28;20232;-74
2023/12/21 03:30:13;;;;;;;10.93;3.87;;;5.70;1.00;;;;;;5059592;28;20309;-74
2023/12/21 03:32:42;;;;;;;11.83;4.17;;;5.80;1.00;;;;;;5059309;28;20223;-74
2023/12/21 03:35:13;;;;;;;9.60;3.80;;;5.80;1.00;;;;;;5062459;28;20256;-73
2023/12/21 03:37:41;;;;;;;10.00;3.87;;;5.80;1.00;;;;;;5073043;28;20217;-74
2023/12/21 03:40:10;;;;;;;10.63;4.40;;;5.80;1.00;;;;;;5061997;28;20239;-75
2023/12/21 03:42:39;;;;;;;11.73;4.20;;;5.80;1.00;;;;;;5063906;28;20301;-76
2023/12/21 03:45:08;;;;;;;10.27;4.13;;;5.80;1.00;;;;;;5058539;28;20217;-77
2023/12/21 03:47:37;;;;;;;12.37;3.50;;;5.80;1.00;;;;;;5062746;28;20216;-75
2023/12/21 03:50:06;;;;;;;10.17;4.13;;;5.80;1.00;;;;;;5061353;28;20227;-77
2023/12/21 03:52:36;;;;;;;9.87;3.70;;;5.80;1.00;;;;;;5060592;28;20697;-76
2023/12/21 03:55:06;;;;;;;10.57;3.83;;;5.80;1.00;;;;;;5059764;28;20235;-75
2023/12/21 03:57:34;;;;;;;11.93;4.03;;;5.80;1.00;;;;;;5062779;28;20310;-75
2023/12/21 04:00:03;;;;;;;9.63;3.80;;;5.80;1.00;;;;;;5062576;28;20222;-75
2023/12/21 04:02:32;;;;;;;12.27;3.97;;;5.80;1.00;;;;;;5061805;28;20281;-75
2023/12/21 04:05:01;;;;;;;12.30;4.37;;;5.90;1.00;;;;;;5061783;28;20308;-75
2023/12/21 04:07:30;;;;;;;13.50;4.17;;;5.90;1.00;;;;;;5054699;28;20228;-76
2023/12/21 04:10:00;;;;;;;14.97;3.77;;;5.90;1.00;;;;;;5053352;28;20285;-75
2023/12/21 04:12:29;;;;;;;8.47;3.60;;;5.90;1.00;;;;;;5062009;28;20230;-74
2023/12/21 04:14:58;;;;;;;7.43;3.90;;;5.80;1.00;;;;;;5064945;28;20219;-75
2023/12/21 04:17:27;;;;;;;7.80;3.77;;;5.70;1.00;;;;;;5061405;28;20231;-78
2023/12/21 04:19:56;;;;;;;11.87;4.20;;;5.70;1.00;;;;;;5061484;28;20228;-76
2023/12/21 04:22:24;;;;;;;10.93;3.80;;;5.70;1.00;;;;;;5056795;28;20244;-74
2023/12/21 04:24:53;;;;;;;9.23;3.80;;;5.70;1.00;;;;;;5063633;28;20220;-74
2023/12/21 04:27:24;;;;;;;10.93;3.70;;;5.80;1.00;;;;;;5058777;28;20219;-74
2023/12/21 04:29:53;;;;;;;10.37;3.80;;;5.80;1.00;;;;;;5062315;28;20226;-75
2023/12/21 04:32:21;;;;;;;11.23;3.63;;;5.70;1.00;;;;;;5054746;28;20224;-77
2023/12/21 04:34:50;;;;;;;9.30;3.90;;;5.70;1.00;;;;;;5061071;28;20228;-77
2023/12/21 04:37:18;;;;;;;8.57;3.43;;;5.80;1.00;;;;;;5064610;28;20382;-79
2023/12/21 04:39:47;;;;;;;9.43;4.00;;;5.70;1.00;;;;;;5058263;28;20223;-78
2023/12/21 04:42:16;;;;;;;7.03;3.80;;;5.80;1.00;;;;;;5058943;28;20229;-79
2023/12/21 04:44:46;;;;;;;10.80;3.90;;;5.80;1.00;;;;;;5060259;28;20250;-78
2023/12/21 04:47:15;;;;;;;8.20;3.83;;;5.80;1.00;;;;;;5055678;28;20225;-74
2023/12/21 04:49:51;;;;;;;6.13;4.03;;;5.80;1.00;;;;;;5061408;28;20394;-73
2023/12/21 04:52:20;;;;;;;9.90;3.93;;;5.80;1.00;;;;;;5061972;28;20225;-77
2023/12/21 04:54:48;;;;;;;9.53;4.23;;;5.90;1.00;;;;;;5062837;28;21017;-75
2023/12/21 04:57:17;;;;;;;10.80;4.17;;;5.80;1.00;;;;;;5060622;28;20219;-75
2023/12/21 04:59:50;;;;;;;9.00;4.33;;;5.70;1.00;;;;;;5066363;28;20590;-76
2023/12/21 05:02:19;;;;;;;9.30;4.00;;;5.70;1.00;;;;;;5065757;28;20224;-77
2023/12/21 05:04:47;;;;;;;8.10;4.23;;;5.80;1.00;;;;;;5067681;28;20227;-73
2023/12/21 05:07:16;;;;;;;8.47;4.30;;;5.60;1.00;;;;;;5067330;28;20306;-76
2023/12/21 05:09:44;;;;;;;11.23;4.60;;;5.60;1.00;;;;;;5056073;28;20229;-74
2023/12/21 05:12:13;;;;;;;6.90;4.30;;;5.60;1.00;;;;;;5065928;28;20373;-75
2023/12/21 05:14:41;;;;;;;8.37;4.43;;;5.60;1.00;;;;;;5067699;28;20235;-76
2023/12/21 05:17:11;;;;;;;8.60;4.27;;;5.60;1.00;;;;;;5063771;28;20224;-74
2023/12/21 05:19:42;;;;;;;9.97;4.67;;;5.60;1.00;;;;;;5065267;28;20301;-76
2023/12/21 05:22:11;;;;;;;10.73;4.50;;;5.60;1.00;;;;;;5062047;28;20219;-77
2023/12/21 05:24:39;;;;;;;6.20;3.93;;;5.60;1.00;;;;;;5066661;28;20270;-78
2023/12/21 05:27:08;;;;;;;7.67;4.10;;;5.60;1.00;;;;;;5057427;28;20221;-74
2023/12/21 05:29:36;;;;;;;7.47;4.50;;;5.60;1.00;;;;;;5063361;28;20251;-75
2023/12/21 05:32:06;;;;;;;9.93;4.63;;;5.60;1.00;;;;;;5065708;28;20232;-76
2023/12/21 05:34:36;;;;;;;8.13;4.57;;;5.70;1.00;;;;;;5062462;28;20224;-75
2023/12/21 05:37:10;;;;;;;6.87;4.00;;;5.60;1.00;;;;;;5061068;28;20228;-76
2023/12/21 05:39:39;;;;;;;7.57;4.50;;;5.60;1.00;;;;;;5061740;28;20886;-74
2023/12/21 05:42:07;;;;;;;7.27;4.20;;;5.60;1.00;;;;;;5063962;28;20235;-75
2023/12/21 05:44:35;;;;;;;6.47;4.27;;;5.50;1.00;;;;;;5060463;28;20651;-76
2023/12/21 05:47:04;;;;;;;6.33;4.30;;;5.50;1.00;;;;;;5061296;28;20221;-76
2023/12/21 05:49:35;;;;;;;6.17;4.30;;;5.60;1.00;;;;;;5068367;28;20239;-75
2023/12/21 05:52:04;;;;;;;15.20;4.33;;;5.60;1.00;;;;;;5074218;28;20225;-75
2023/12/21 05:54:32;;;;;;;7.90;4.00;;;5.50;1.00;;;;;;5063297;28;20237;-77
2023/12/21 05:57:02;;;;;;;9.27;4.23;;;5.50;1.00;;;;;;5066488;28;20231;-75
2023/12/21 05:59:30;;;;;;;7.27;3.63;;;5.50;1.00;;;;;;5067720;28;20256;-75
2023/12/21 06:01:59;;;;;;;7.30;4.10;;;5.40;1.00;;;;;;5058941;28;20275;-74
2023/12/21 06:04:29;;;;;;;6.10;3.80;;;5.50;1.00;;;;;;5065898;28;20299;-75
2023/12/21 06:07:00;;;;;;;5.23;3.90;;;5.40;1.00;;;;;;5066333;28;20224;-73
2023/12/21 06:09:29;;;;;;;6.50;3.80;;;5.50;1.00;;;;;;5064734;28;20233;-72
2023/12/21 06:11:57;;;;;;;7.93;4.63;;;5.40;1.00;;;;;;5068444;28;20220;-74
2023/12/21 06:14:26;;;;;;;4.93;4.07;;;5.50;1.00;;;;;;5062911;28;20219;-72
2023/12/21 06:16:55;;;;;;;5.93;3.80;;;5.50;1.00;;;;;;5063868;28;20618;-73
2023/12/21 06:19:24;;;;;;;4.83;3.37;;;5.40;1.00;;;;;;5061027;28;21326;-75
2023/12/21 06:21:52;;;;;;;4.87;3.67;;;5.50;1.00;;;;;;5070705;28;20231;-75
2023/12/21 06:24:22;;;;;;;5.47;3.60;;;5.40;1.00;;;;;;5068021;28;20222;-73
2023/12/21 06:26:51;;;;;;;7.97;3.70;;;5.40;1.00;;;;;;5075672;28;20220;-73
2023/12/21 06:29:20;;;;;;;6.67;3.40;;;5.40;1.00;;;;;;5064717;28;20235;-74
2023/12/21 06:31:48;;;;;;;3.77;3.37;;;5.40;1.00;;;;;;5064011;28;20208;-74
2023/12/21 06:34:17;;;;;;;5.73;3.67;;;5.40;1.00;;;;;;5058909;28;20236;-74
2023/12/21 06:36:46;;;;;;;3.87;3.13;;;5.30;1.00;;;;;;5064064;28;20258;-75
2023/12/21 06:39:15;;;;;;;4.33;3.23;;;5.40;1.00;;;;;;5061153;28;20247;-75
2023/12/21 06:41:46;;;;;;;3.47;3.00;;;5.30;1.00;;;;;;5062909;28;20227;-76
2023/12/21 06:44:15;;;;;;;4.47;3.23;;;5.30;1.00;;;;;;5062338;28;20293;-75
2023/12/21 06:46:43;;;;;;;5.63;3.30;;;5.30;1.00;;;;;;5057912;28;20303;-75
2023/12/21 06:49:12;;;;;;;3.20;2.80;;;5.40;1.00;;;;;;5061893;28;20927;-75
2023/12/21 06:51:41;;;;;;;5.00;3.00;;;5.30;1.00;;;;;;5064255;28;20228;-76
2023/12/21 06:54:10;;;;;;;4.27;3.27;;;5.40;1.00;;;;;;5064358;28;20235;-77
2023/12/21 06:56:38;;;;;;;4.63;3.00;;;5.40;1.00;;;;;;5063806;28;20227;-76
2023/12/21 06:59:08;;;;;;;8.40;3.30;;;5.30;1.00;;;;;;5064733;28;20216;-76
2023/12/21 07:01:36;;;;;;;3.17;2.83;;;5.30;1.00;;;;;;5063703;28;20228;-76
2023/12/21 07:04:08;;;;;;;5.37;3.40;;;5.20;1.00;;;;;;5065883;28;20250;-76
2023/12/21 07:06:37;;;;;;;3.93;3.47;;;5.20;1.00;;;;;;5058903;28;20216;-76
2023/12/21 07:09:07;;;;;;;4.03;3.30;;;5.20;1.00;;;;;;5064820;28;21240;-77
2023/12/21 07:11:35;;;;;;;4.77;3.10;;;5.20;1.00;;;;;;5064303;28;20632;-73
2023/12/21 07:14:03;;;;;;;6.63;3.90;;;5.20;1.00;;;;;;5061996;28;20224;-76
2023/12/21 07:16:33;;;;;;;4.97;3.50;;;5.20;1.00;;;;;;5052553;28;20235;-76
2023/12/21 07:19:02;;;;;;;5.70;3.60;;;5.20;1.00;;;;;;5066081;28;20237;-76
2023/12/21 07:21:31;;;;;;;4.60;3.70;;;5.20;1.00;;;;;;5062522;28;20227;-76
2023/12/21 07:24:00;;;;;;;5.37;3.60;;;5.30;1.00;;;;;;5063023;28;20854;-77
2023/12/21 07:26:28;;;;;;;5.93;3.90;;;5.30;1.00;;;;;;5061954;28;20228;-77
2023/12/21 07:28:57;;;;;;;4.77;3.77;;;5.30;1.00;;;;;;5057157;28;20276;-77
2023/12/21 07:31:25;;;;;;;4.60;3.47;;;5.30;1.00;;;;;;5060574;28;20247;-77
2023/12/21 07:33:56;;;;;;;7.07;3.97;;;5.30;1.00;;;;;;5066970;28;20718;-78
2023/12/21 07:36:25;;;;;;;3.97;3.33;;;5.30;1.00;;;;;;5065511;28;20231;-77
2023/12/21 07:38:53;;;;;;;4.87;4.10;;;5.30;1.00;;;;;;5058939;28;20267;-77
2023/12/21 07:41:22;;;;;;;4.67;3.80;;;5.30;1.00;;;;;;5061754;28;20216;-76
2023/12/21 07:43:50;;;;;;;5.93;4.20;;;5.40;1.00;;;;;;5064928;28;20233;-77
2023/12/21 07:46:21;;;;;;;3.97;3.57;;;5.40;1.00;;;;;;5060181;28;20297;-77
2023/12/21 07:48:49;;;;;;;4.13;3.50;;;5.40;1.00;;;;;;5059352;28;20242;-76
2023/12/21 07:51:19;;;;;;;5.67;3.80;;;5.40;1.00;;;;;;5062884;28;20308;-77
2023/12/21 07:53:48;;;;;;;5.73;3.70;;;5.40;1.00;;;;;;5064646;28;20212;-74
2023/12/21 07:56:17;;;;;;;4.20;3.77;;;5.40;1.00;;;;;;5063424;28;20216;-74
2023/12/21 07:58:46;;;;;;;3.83;3.43;;;5.40;1.00;;;;;;5064684;28;20216;-75
2023/12/21 08:01:15;;;;;;;4.13;3.73;;;5.40;1.00;;;;;;5059007;28;20299;-75
2023/12/21 08:03:45;;;;;;;3.97;3.53;;;5.50;1.00;;;;;;5060517;28;20228;-75
2023/12/21 08:06:22;;;;;;;7.20;4.10;;;5.40;1.00;;;;;;5063462;28;20273;-77
2023/12/21 08:08:52;;;;;;;5.50;3.90;;;5.50;1.00;;;;;;5058160;28;20226;-76
2023/12/21 08:11:25;;;;;;;4.03;3.60;;;5.50;1.00;;;;;;5075689;28;20230;-74
2023/12/21 08:13:58;;;;;;;4.47;3.80;;;5.40;1.00;;;;;;5061781;28;20266;-74
2023/12/21 08:16:27;;;;;;;4.90;4.00;;;5.50;1.00;;;;;;5062839;28;20247;-77
2023/12/21 08:18:56;;;;;;;4.10;3.60;;;5.40;1.00;;;;;;5061767;28;20579;-74
2023/12/21 08:21:27;;;;;;;5.80;4.20;;;5.40;1.00;;;;;;5059793;28;20235;-78
2023/12/21 08:23:55;;;;;;;5.87;4.00;;;5.40;1.00;;;;;;5061364;28;20224;-76
2023/12/21 08:26:24;;;;;;;5.10;3.77;;;5.40;1.00;;;;;;5059199;28;22513;-74
2023/12/21 08:28:52;;;;;;;5.33;3.63;;;5.40;1.00;;;;;;5054693;28;20251;-74
2023/12/21 08:31:25;;;;;;;4.43;3.50;;;5.40;1.00;;;;;;5062689;28;20212;-75
2023/12/21 08:33:55;;;;;;;4.73;3.53;;;5.40;1.00;;;;;;5063511;28;20295;-72
2023/12/21 08:36:23;;;;;;;4.13;3.40;;;5.40;1.00;;;;;;5060817;28;20235;-72
2023/12/21 08:38:53;;;;;;;3.93;3.00;;;5.40;1.00;;;;;;5059975;28;20222;-72
2023/12/21 08:41:24;;;;;;;4.67;3.20;;;5.40;1.00;;;;;;5057453;28;20649;-71
2023/12/21 08:43:54;;;;;;;5.70;3.13;;;5.30;1.00;;;;;;5060816;28;20221;-71
2023/12/21 08:46:23;;;;;;;3.07;2.53;;;5.50;1.00;;;;;;5057658;28;20306;-73
2023/12/21 08:48:52;;;;;;;3.67;2.40;;;5.40;1.00;;;;;;5064154;28;20224;-72
2023/12/21 08:51:22;;;;;;;6.20;2.60;;;5.40;1.00;;;;;;5063327;28;20231;-72
2023/12/21 08:53:50;;;;;;;3.23;2.40;;;5.40;1.00;;;;;;5061840;28;20311;-72
2023/12/21 08:56:20;;;;;;;4.47;2.63;;;5.30;1.00;;;;;;5057905;28;20224;-74
2023/12/21 08:58:52;;;;;;;3.07;2.30;;;5.40;1.00;;;;;;5057220;28;20228;-73
2023/12/21 09:01:21;;;;;;;3.27;2.40;;;5.50;1.00;;;;;;5053760;28;20224;-72
2023/12/21 09:03:49;;;;;;;3.23;2.40;;;5.40;1.00;;;;;;5062196;28;20259;-72
2023/12/21 09:06:18;;;;;;;4.37;2.60;;;5.50;1.00;;;;;;5058945;28;20304;-74
2023/12/21 09:08:47;;;;;;;4.87;2.80;;;5.50;1.00;;;;;;5057946;28;20253;-71
2023/12/21 09:11:20;;;;;;;3.17;2.20;;;5.50;1.00;;;;;;5059002;28;20638;-71
2023/12/21 09:13:49;;;;;;;2.67;2.20;;;5.60;1.00;;;;;;5049034;28;20224;-74
2023/12/21 09:16:18;;;;;;;2.70;2.50;;;5.50;1.00;;;;;;5056963;28;20232;-78
2023/12/21 09:18:47;;;;;;;3.40;2.60;;;5.50;1.00;;;;;;5060543;28;20257;-74
2023/12/21 09:21:16;;;;;;;3.53;2.67;;;5.50;1.00;;;;;;5060311;28;20308;-76
2023/12/21 09:23:44;;;;;;;4.60;2.40;;;5.60;1.00;;;;;;5065059;28;20304;-77
2023/12/21 09:26:13;;;;;;;3.77;2.43;;;5.70;1.00;;;;;;5060240;28;20312;-76
2023/12/21 09:28:43;;;;;;;5.40;2.50;;;5.70;1.00;;;;;;5058004;28;20220;-75
2023/12/21 09:31:12;;;;;;;2.97;2.67;;;5.80;1.00;;;;;;5062036;28;20235;-76
2023/12/21 09:33:41;;;;;;;3.93;2.33;;;5.70;1.00;;;;;;5053387;28;20306;-76
2023/12/21 09:36:10;;;;;;;3.90;2.43;;;5.70;1.00;;;;;;5058751;28;20223;-76
2023/12/21 09:38:39;;;;;;;3.80;2.50;;;5.60;1.00;;;;;;5055532;28;20568;-74
2023/12/21 09:41:09;;;;;;;2.80;2.30;;;5.70;1.00;;;;;;5062772;28;20224;-74
2023/12/21 09:43:41;;;;;;;4.17;2.73;;;5.70;1.00;;;;;;5066274;28;20232;-75
2023/12/21 09:46:13;;;;;;;3.30;2.60;;;5.70;1.00;;;;;;5063219;28;20732;-74
2023/12/21 09:48:43;;;;;;;4.10;2.60;;;5.70;1.00;;;;;;5064432;28;20260;-74
2023/12/21 09:51:14;;;;;;;3.13;2.60;;;5.70;1.00;;;;;;5062724;28;20286;-74
2023/12/21 09:53:44;;;;;;;4.43;2.63;;;5.70;1.00;;;;;;5064396;28;20268;-74
2023/12/21 09:56:14;;;;;;;3.33;2.63;;;5.70;1.00;;;;;;5066862;28;20236;-74
2023/12/21 09:58:44;;;;;;;4.67;2.37;;;5.80;1.00;;;;;;5063126;28;20323;-75
2023/12/21 10:01:14;;;;;;;2.67;2.33;;;5.80;1.00;;;;;;5060502;28;20236;-74
2023/12/21 10:03:44;;;;;;;3.87;2.53;;;5.90;1.00;;;;;;5065813;28;20257;-73
2023/12/21 10:06:13;;;;;;;3.23;2.93;;;5.80;1.00;;;;;;5067225;28;20218;-73
2023/12/21 10:08:42;;;;;;;3.53;2.70;;;5.80;1.00;;;;;;5064786;28;20230;-74
2023/12/21 10:11:13;;;;;;;4.30;2.83;;;5.80;1.00;;;;;;5065176;28;20618;-73
2023/12/21 10:13:47;;;;;;;4.10;2.80;;;5.80;1.00;;;;;;5064422;28;20236;-74
2023/12/21 10:16:18;;;;;;;4.20;2.73;;;5.90;1.00;;;;;;5058965;28;20690;-74
2023/12/21 10:18:48;;;;;;;3.43;2.40;;;5.90;1.00;;;;;;5063494;28;20243;-74
2023/12/21 10:21:17;;;;;;;5.47;3.10;;;5.90;1.00;;;;;;5060099;28;20330;-74
2023/12/21 10:23:46;;;;;;;4.73;2.70;;;5.90;1.00;;;;;;5093345;28;20217;-74
2023/12/21 10:26:14;;;;;;;4.17;2.97;;;5.90;1.00;;;;;;5057017;28;20319;-76
2023/12/21 10:28:43;;;;;;;4.93;3.10;;;5.80;1.00;;;;;;5063003;28;20229;-70
2023/12/21 10:31:13;;;;;;;4.00;2.87;;;5.80;1.00;;;;;;5060226;28;20627;-77
2023/12/21 10:33:44;;;;;;;6.33;3.00;;;5.80;1.00;;;;;;5065746;28;20219;-79
2023/12/21 10:36:14;;;;;;;4.00;3.10;;;5.90;1.00;;;;;;5068694;28;20224;-75
2023/12/21 10:38:44;;;;;;;4.80;2.90;;;5.90;1.00;;;;;;5065178;28;20226;-88
2023/12/21 10:41:17;;;;;;;4.17;3.03;;;5.90;1.00;;;;;;5058645;28;20275;-76
2023/12/21 10:43:46;;;;;;;3.87;2.60;;;6.00;1.00;;;;;;5064591;28;20213;-77
2023/12/21 10:46:18;;;;;;;4.83;3.17;;;6.00;1.00;;;;;;5065336;28;20217;-81
2023/12/21 10:48:50;;;;;;;4.07;2.87;;;6.00;1.00;;;;;;5062301;28;20314;-78
2023/12/21 10:51:20;;;;;;;5.30;3.70;;;6.00;1.00;;;;;;5061699;28;20216;-81
2023/12/21 10:53:50;;;;;;;3.03;2.73;;;6.10;1.00;;;;;;5064484;28;20241;-77
2023/12/21 10:56:21;;;;;;;3.47;3.03;;;6.10;1.00;;;;;;5066095;28;20232;-77
2023/12/21 10:58:51;;;;;;;5.17;3.40;;;6.00;1.00;;;;;;5060699;28;20221;-75
2023/12/21 11:01:21;;;;;;;6.57;3.20;;;6.00;1.00;;;;;;5066807;28;20229;-75
2023/12/21 11:03:53;;;;;;;3.67;3.10;;;6.10;1.00;;;;;;5062059;28;20605;-78
2023/12/21 11:06:22;;;;;;;4.53;3.30;;;6.10;1.00;;;;;;5067435;28;20300;-78
2023/12/21 11:08:53;;;;;;;4.13;3.03;;;6.10;1.00;;;;;;5060316;28;20234;-77
2023/12/21 11:11:23;;;;;;;4.73;3.30;;;6.20;1.00;;;;;;5060988;28;20216;-80
2023/12/21 11:13:55;;;;;;;4.03;3.20;;;6.20;1.00;;;;;;5081808;28;20220;-79
2023/12/21 11:16:28;;;;;;;4.23;3.30;;;6.30;1.00;;;;;;5064461;28;20706;-76
2023/12/21 11:19:02;;;;;;;3.97;2.90;;;6.20;1.00;;;;;;5063307;28;20813;-78
2023/12/21 11:21:32;;;;;;;3.30;2.83;;;6.30;1.00;;;;;;5075337;28;20440;-79
2023/12/21 11:24:02;;;;;;;4.60;2.97;;;6.30;1.00;;;;;;5057073;28;20224;-79
2023/12/21 11:26:31;;;;;;;3.63;2.60;;;6.40;1.00;;;;;;5060749;28;20225;-78
2023/12/21 11:29:07;;;;;;;5.20;2.80;;;6.30;1.00;;;;;;5062126;28;20228;-79
2023/12/21 11:31:39;;;;;;;4.20;2.90;;;6.40;1.00;;;;;;5066482;28;20227;-77
2023/12/21 11:34:24;;;;;;;4.50;2.97;;;6.40;1.00;;;;;;5065135;28;20703;-78
2023/12/21 11:37:13;;;;;;;4.10;3.00;;;6.30;1.00;;;;;;5060947;28;20306;-78
2023/12/21 11:39:42;;;;;;;3.70;2.70;;;6.40;1.00;;;;;;5057006;28;20229;-78
2023/12/21 11:42:10;;;;;;;4.00;2.70;;;6.40;1.00;;;;;;5077938;28;20281;-78
2023/12/21 11:44:39;;;;;;;3.93;2.90;;;6.50;1.00;;;;;;5062519;28;20267;-77
2023/12/21 11:47:08;;;;;;;3.87;2.60;;;6.60;1.00;;;;;;5074000;28;20234;-77
2023/12/21 11:49:39;;;;;;;3.70;3.00;;;6.60;1.00;;;;;;5063980;28;20263;-78
2023/12/21 11:52:09;;;;;;;4.83;2.87;;;6.70;1.00;;;;;;5061139;28;20313;-80
2023/12/21 11:54:38;;;;;;;3.57;2.80;;;6.70;1.00;;;;;;5063872;28;20235;-80
2023/12/21 11:57:14;;;;;;;4.17;2.87;;;6.60;1.00;;;;;;5058609;28;20316;-79
2023/12/21 11:59:43;;;;;;;5.70;2.90;;;6.70;1.00;;;;;;5079015;28;20297;-79
2023/12/21 12:02:13;;;;;;;4.97;3.53;;;6.70;1.00;;;;;;5062914;28;20221;-80
2023/12/21 12:04:49;;;;;;;4.17;2.80;;;6.70;1.00;;;;;;5056018;28;20258;-73
2023/12/21 12:07:19;;;;;;;4.23;3.00;;;6.70;1.00;;;;;;5059870;28;20377;-78
2023/12/21 12:09:48;;;;;;;4.93;3.40;;;6.60;1.00;;;;;;5061647;28;20226;-79
2023/12/21 12:12:18;;;;;;;3.77;2.90;;;6.70;1.00;;;;;;5063407;28;20224;-79
2023/12/21 12:14:46;;;;;;;4.37;3.23;;;6.60;1.00;;;;;;5066162;28;20226;-80
2023/12/21 12:17:15;;;;;;;4.63;3.20;;;6.60;1.00;;;;;;5070394;28;20237;-79
2023/12/21 12:19:45;;;;;;;3.87;3.30;;;6.60;1.00;;;;;;5064084;28;20232;-81
2023/12/21 12:22:14;;;;;;;5.17;3.53;;;6.60;1.00;;;;;;5062203;28;20325;-81
2023/12/21 12:24:45;;;;;;;4.03;3.60;;;6.60;1.00;;;;;;5065410;28;20271;-78
2023/12/21 12:27:13;;;;;;;4.13;3.55;;;6.70;1.00;;;;;;5062706;28;20289;-85
2023/12/21 12:29:42;;;;;;;4.93;3.40;;;6.70;1.00;;;;;;5060628;28;20242;-81
2023/12/21 12:32:11;;;;;;;6.80;3.83;;;6.70;1.00;;;;;;5059758;28;20224;-82
2023/12/21 12:34:40;;;;;;;4.77;3.83;;;6.70;1.00;;;;;;5063634;28;20224;-81
2023/12/21 12:37:10;;;;;;;4.70;3.67;;;6.70;1.00;;;;;;5063234;28;20262;-82
2023/12/21 12:39:39;;;;;;;4.33;3.87;;;6.70;1.00;;;;;;5060580;28;20217;-82
2023/12/21 12:42:09;;;;;;;4.93;4.20;;;6.70;1.00;;;;;;5059883;28;20231;-79
2023/12/21 12:44:37;;;;;;;5.53;4.03;;;6.80;1.00;;;;;;5062212;28;20227;-79
2023/12/21 12:47:07;;;;;;;5.10;3.97;;;6.70;1.00;;;;;;5065144;28;20329;-79
2023/12/21 12:49:36;;;;;;;6.10;3.90;;;6.70;1.00;;;;;;5066071;28;20356;-79
2023/12/21 12:52:08;;;;;;;4.53;3.53;;;6.80;1.00;;;;;;5060448;28;20757;-81
2023/12/21 12:54:37;;;;;;;5.73;3.80;;;6.70;1.00;;;;;;5058461;28;20224;-80
2023/12/21 12:57:06;;;;;;;5.10;3.90;;;6.80;1.00;;;;;;5057585;28;20703;-79
2023/12/21 12:59:35;;;;;;;5.20;3.77;;;6.80;1.00;;;;;;5078048;28;20240;-80
2023/12/21 13:02:04;;;;;;;5.87;3.77;;;6.80;1.00;;;;;;5060929;28;20241;-80
2023/12/21 13:04:33;;;;;;;7.77;3.70;;;6.80;1.00;;;;;;5061254;28;20274;-79
2023/12/21 13:07:01;;;;;;;6.07;3.77;;;6.70;1.00;;;;;;5062676;28;20234;-79
2023/12/21 13:09:34;;;;;;;5.77;3.73;;;6.80;1.00;;;;;;5053934;28;20813;-81
2023/12/21 13:12:04;;;;;;;5.63;3.90;;;6.80;1.00;;;;;;5057589;28;20318;-81
2023/12/21 13:14:32;;;;;;;4.97;3.80;;;6.80;1.00;;;;;;5056728;28;20227;-81
2023/12/21 13:17:01;;;;;;;5.60;3.83;;;6.80;1.00;;;;;;5060198;28;20583;-81